createdAt,value
2023-02-24T00:01:29.784Z,100972.34
2023-02-24T00:03:31.750Z,100971.69
2023-02-24T00:05:35.360Z,100970.81
2023-02-24T00:07:37.226Z,100962.09
2023-02-24T00:09:40.232Z,100968.47
2023-02-24T00:11:43.698Z,100964.09
2023-02-24T00:13:46.492Z,100956.19
2023-02-24T00:15:58.981Z,100954.16
2023-02-24T00:18:02.008Z,100950.78
2023-02-24T00:20:04.363Z,100944.38
2023-02-24T00:22:08.561Z,100949.75
2023-02-24T00:24:10.602Z,100933.78
2023-02-24T00:26:13.895Z,100940.16
2023-02-24T00:28:15.644Z,100932.09
2023-02-24T00:30:18.209Z,100938.31
2023-02-24T00:32:19.946Z,100928.38
2023-02-24T00:34:23.737Z,100924.00
2023-02-24T00:36:27.044Z,100913.88
2023-02-24T00:38:28.858Z,100915.75
2023-02-24T00:40:30.507Z,100918.47
2023-02-24T00:42:32.107Z,100912.88
2023-02-24T00:44:35.738Z,100910.19
2023-02-24T00:46:39.234Z,100899.41
2023-02-24T00:48:41.186Z,100899.59
2023-02-24T00:50:44.360Z,100902.09
2023-02-24T00:52:46.016Z,100888.47
2023-02-24T00:54:49.351Z,100895.72
2023-02-24T00:56:51.022Z,100893.88
2023-02-24T00:58:53.944Z,100888.47
2023-02-24T01:00:55.863Z,100896.56
2023-02-24T01:02:57.546Z,100880.53
2023-02-24T01:04:59.234Z,100885.09
2023-02-24T01:07:03.409Z,100885.28
2023-02-24T01:09:05.074Z,100878.03
2023-02-24T01:11:07.011Z,100886.94
2023-02-24T01:13:08.714Z,100879.88
2023-02-24T01:15:11.556Z,100877.34
2023-02-24T01:17:14.057Z,100875.34
2023-02-24T01:19:17.004Z,100883.56
2023-02-24T01:21:20.441Z,100876.50
2023-02-24T01:23:23.622Z,100873.13
2023-02-24T01:25:25.160Z,100880.53
2023-02-24T01:27:26.682Z,100869.09
2023-02-24T01:29:28.445Z,100874.47
2023-02-24T01:31:30.520Z,100867.59
2023-02-24T01:33:33.565Z,100871.28
2023-02-24T01:35:35.540Z,100872.13
2023-02-24T01:37:37.578Z,100869.44
2023-02-24T01:39:40.596Z,100866.03
2023-02-24T01:41:45.009Z,100860.50
2023-02-24T01:43:58.696Z,100855.97
2023-02-24T01:46:00.495Z,100852.41
2023-02-24T01:48:06.850Z,100850.56
2023-02-24T01:50:09.960Z,100848.72
2023-02-24T01:52:16.632Z,100840.66
2023-02-24T01:54:21.345Z,100839.78
2023-02-24T01:56:24.531Z,100840.78
2023-02-24T01:58:29.222Z,100837.94
2023-02-24T02:00:31.441Z,100826.31
2023-02-24T02:02:33.411Z,100825.47
2023-02-24T02:04:40.151Z,100829.19
2023-02-24T02:06:41.885Z,100823.63
2023-02-24T02:08:44.315Z,100826.31
2023-02-24T02:10:46.949Z,100829.03
2023-02-24T02:12:50.025Z,100824.47
2023-02-24T02:14:54.560Z,100810.81
2023-02-24T02:17:13.878Z,100811.84
2023-02-24T02:19:50.725Z,100808.97
2023-02-24T02:22:05.382Z,100808.31
2023-02-24T02:24:35.067Z,100806.63
2023-02-24T02:27:15.217Z,100811.84
2023-02-24T02:29:38.312Z,100811.84
2023-02-24T02:32:30.749Z,100800.22
2023-02-24T02:34:45.652Z,100800.38
2023-02-24T02:36:55.753Z,100800.53
2023-02-24T02:39:08.682Z,100797.19
2023-02-24T02:41:20.766Z,100787.25
2023-02-24T02:43:31.222Z,100788.09
2023-02-24T02:45:40.929Z,100787.06
2023-02-24T02:47:48.915Z,100778.19
2023-02-24T02:49:58.140Z,100785.06
2023-02-24T02:52:05.428Z,100786.25
2023-02-24T02:54:16.094Z,100777.00
2023-02-24T02:56:21.954Z,100775.13
2023-02-24T02:58:30.196Z,100766.06
2023-02-24T03:00:36.501Z,100772.25
2023-02-24T03:02:43.833Z,100765.88
2023-02-24T03:04:51.508Z,100753.25
2023-02-24T03:07:00.582Z,100757.63
2023-02-24T03:09:07.588Z,100754.94
2023-02-24T03:11:15.040Z,100746.84
2023-02-24T03:13:21.314Z,100747.84
2023-02-24T03:15:28.086Z,100743.13
2023-02-24T03:17:33.954Z,100739.44
2023-02-24T03:19:39.067Z,100739.44
2023-02-24T03:21:44.355Z,100735.72
2023-02-24T03:23:50.782Z,100730.34
2023-02-24T03:25:56.559Z,100727.47
2023-02-24T03:28:02.814Z,100723.09
2023-02-24T03:30:11.161Z,100716.53
2023-02-24T03:32:18.549Z,100722.91
2023-02-24T03:34:27.424Z,100716.53
2023-02-24T03:36:29.533Z,100706.59
2023-02-24T03:38:33.674Z,100701.19
2023-02-24T03:40:37.532Z,100702.91
2023-02-24T03:42:42.596Z,100697.50
2023-02-24T03:44:44.204Z,100691.06
2023-02-24T03:46:45.920Z,100692.94
2023-02-24T03:48:53.096Z,100692.78
2023-02-24T03:50:55.809Z,100692.94
2023-02-24T03:53:08.159Z,100683.00
2023-02-24T03:55:25.539Z,100678.28
2023-02-24T03:57:40.574Z,100674.91
2023-02-24T03:59:50.814Z,100669.53
2023-02-24T04:01:56.954Z,100668.69
2023-02-24T04:04:05.429Z,100669.53
2023-02-24T04:06:13.156Z,100665.97
2023-02-24T04:08:17.302Z,100661.63
2023-02-24T04:10:24.143Z,100666.19
2023-02-24T04:12:30.755Z,100660.09
2023-02-24T04:14:40.178Z,100652.69
2023-02-24T04:16:48.506Z,100651.00
2023-02-24T04:18:51.965Z,100645.81
2023-02-24T04:20:56.113Z,100644.97
2023-02-24T04:23:04.570Z,100641.25
2023-02-24T04:25:09.537Z,100628.63
2023-02-24T04:27:13.506Z,100628.81
2023-02-24T04:29:20.926Z,100620.72
2023-02-24T04:31:25.630Z,100622.56
2023-02-24T04:33:27.804Z,100623.41
2023-02-24T04:35:29.625Z,100616.34
2023-02-24T04:37:31.275Z,100615.50
2023-02-24T04:39:32.867Z,100615.50
2023-02-24T04:41:34.451Z,100608.41
2023-02-24T04:43:36.283Z,100602.03
2023-02-24T04:45:39.336Z,100597.63
2023-02-24T04:47:40.835Z,100599.53
2023-02-24T04:49:42.355Z,100594.94
2023-02-24T04:51:44.909Z,100586.88
2023-02-24T04:53:46.456Z,100585.84
2023-02-24T04:55:48.995Z,100575.28
2023-02-24T04:57:53.481Z,100575.94
2023-02-24T04:59:54.987Z,100574.25
2023-02-24T05:01:58.010Z,100566.16
2023-02-24T05:03:59.670Z,100567.00
2023-02-24T05:06:01.949Z,100558.06
2023-02-24T05:08:06.032Z,100558.06
2023-02-24T05:10:08.187Z,100552.69
2023-02-24T05:12:09.819Z,100545.63
2023-02-24T05:14:13.362Z,100535.88
2023-02-24T05:16:17.760Z,100539.56
2023-02-24T05:18:21.150Z,100534.38
2023-02-24T05:20:22.850Z,100532.50
2023-02-24T05:22:24.473Z,100520.72
2023-02-24T05:27:29.228Z,100512.97
2023-02-24T05:29:32.530Z,100509.44
2023-02-24T05:31:34.647Z,100503.41
2023-02-24T05:33:38.867Z,100508.78
2023-02-24T05:35:40.401Z,100503.56
2023-02-24T05:37:42.179Z,100494.47
2023-02-24T05:39:43.650Z,100491.09
2023-02-24T05:41:47.814Z,100492.63
2023-02-24T05:43:51.376Z,100494.66
2023-02-24T05:45:52.997Z,100492.81
2023-02-24T05:47:54.516Z,100487.41
2023-02-24T05:49:57.542Z,100480.16
2023-02-24T05:52:00.575Z,100479.31
2023-02-24T05:54:02.497Z,100470.41
2023-02-24T05:56:04.409Z,100457.78
2023-02-24T05:58:06.262Z,100463.16
2023-02-24T06:00:09.585Z,100448.84
2023-02-24T06:02:13.353Z,100451.56
2023-02-24T06:04:16.520Z,100454.09
2023-02-24T06:06:19.803Z,100447.84
2023-02-24T06:08:21.331Z,100447.00
2023-02-24T06:10:23.069Z,100444.16
2023-02-24T06:12:26.422Z,100435.38
2023-02-24T06:14:28.546Z,100443.47
2023-02-24T06:16:30.301Z,100433.69
2023-02-24T06:18:32.632Z,100431.84
2023-02-24T06:20:34.494Z,100430.19
2023-02-24T06:22:37.423Z,100428.31
2023-02-24T06:24:39.444Z,100427.31
2023-02-24T06:26:41.774Z,100423.78
2023-02-24T06:28:43.473Z,100430.19
2023-02-24T06:30:45.072Z,100423.28
2023-02-24T06:32:46.655Z,100421.06
2023-02-24T06:34:48.617Z,100414.69
2023-02-24T06:36:50.224Z,100419.22
2023-02-24T06:38:53.614Z,100408.44
2023-02-24T06:40:57.361Z,100417.22
2023-02-24T06:42:58.916Z,100407.25
2023-02-24T06:45:00.566Z,100408.09
2023-02-24T06:47:04.775Z,100397.31
2023-02-24T06:49:06.327Z,100398.16
2023-02-24T06:51:10.365Z,100394.47
2023-02-24T06:53:11.895Z,100402.53
2023-02-24T06:55:15.796Z,100391.59
2023-02-24T06:57:17.440Z,100385.38
2023-02-24T06:59:19.267Z,100384.34
2023-02-24T07:01:23.952Z,100382.47
2023-02-24T07:03:29.566Z,100378.94
2023-02-24T07:05:33.630Z,100373.38
2023-02-24T07:07:35.221Z,100377.56
2023-02-24T07:09:36.775Z,100370.53
2023-02-24T07:11:41.793Z,100367.00
2023-02-24T07:13:43.756Z,100368.84
2023-02-24T07:15:45.505Z,100367.00
2023-02-24T07:17:48.498Z,100361.59
2023-02-24T07:19:50.383Z,100353.31
2023-02-24T07:21:56.357Z,100358.91
2023-02-24T07:23:59.336Z,100352.31
2023-02-24T07:26:06.407Z,100349.44
2023-02-24T07:28:10.023Z,100342.19
2023-02-24T07:30:12.754Z,100335.63
2023-02-24T07:32:14.462Z,100345.56
2023-02-24T07:34:16.068Z,100341.00
2023-02-24T07:36:18.300Z,100331.88
2023-02-24T07:38:20.221Z,100327.16
2023-02-24T07:40:22.140Z,100315.38
2023-02-24T07:42:23.779Z,100313.53
2023-02-24T07:44:26.958Z,100310.84
2023-02-24T07:46:30.777Z,100296.31
2023-02-24T07:48:32.430Z,100305.06
2023-02-24T07:50:34.453Z,100301.34
2023-02-24T07:52:36.518Z,100293.94
2023-02-24T07:54:38.582Z,100287.53
2023-02-24T07:56:40.264Z,100279.44
2023-02-24T07:58:42.425Z,100280.25
2023-02-24T08:00:45.347Z,100281.94
2023-02-24T08:02:48.529Z,100272.00
2023-02-24T08:04:50.712Z,100265.41
2023-02-24T08:06:53.064Z,100260.69
2023-02-24T08:08:56.378Z,100257.16
2023-02-24T08:10:58.253Z,100245.34
2023-02-24T08:13:00.130Z,100246.19
2023-02-24T08:15:02.002Z,100239.75
2023-02-24T08:17:05.496Z,100239.59
2023-02-24T08:19:08.117Z,100243.13
2023-02-24T08:21:09.766Z,100235.03
2023-02-24T08:23:11.399Z,100231.50
2023-02-24T08:25:14.299Z,100225.91
2023-02-24T08:27:16.954Z,100229.66
2023-02-24T08:29:18.601Z,100218.50
2023-02-24T08:31:20.641Z,100215.63
2023-02-24T08:33:23.891Z,100213.56
2023-02-24T08:35:28.876Z,100204.47
2023-02-24T08:37:32.010Z,100206.97
2023-02-24T08:39:33.576Z,100198.69
2023-02-24T08:41:35.453Z,100199.16
2023-02-24T08:43:39.610Z,100200.00
2023-02-24T08:45:42.147Z,100197.09
2023-02-24T08:47:43.763Z,100190.91
2023-02-24T08:49:47.089Z,100181.97
2023-02-24T08:51:49.396Z,100176.38
2023-02-24T08:53:52.811Z,100171.81
2023-02-24T08:55:54.474Z,100171.81
2023-02-24T08:57:56.525Z,100165.81
2023-02-24T08:59:58.145Z,100161.44
2023-02-24T09:02:04.593Z,100157.25
2023-02-24T09:04:09.649Z,100153.34
2023-02-24T09:06:14.436Z,100149.16
2023-02-24T09:08:15.918Z,100147.47
2023-02-24T09:10:19.318Z,100141.44
2023-02-24T09:12:21.060Z,100145.56
2023-02-24T09:14:27.941Z,100137.09
2023-02-24T09:16:30.534Z,100125.84
2023-02-24T09:18:32.445Z,100129.56
2023-02-24T09:20:34.281Z,100119.63
2023-02-24T09:22:37.515Z,100117.94
2023-02-24T09:24:39.066Z,100109.84
2023-02-24T09:26:40.709Z,100109.84
2023-02-24T09:28:42.429Z,100112.53
2023-02-24T09:30:46.102Z,100097.59
2023-02-24T09:32:48.062Z,100102.97
2023-02-24T09:34:49.933Z,100095.28
2023-02-24T09:36:51.826Z,100094.22
2023-02-24T09:38:56.410Z,100083.44
2023-02-24T09:40:59.686Z,100085.50
2023-02-24T09:43:03.892Z,100076.59
2023-02-24T09:45:11.462Z,100083.00
2023-02-24T09:47:16.366Z,100073.25
2023-02-24T09:49:19.136Z,100074.28
2023-02-24T09:51:23.317Z,100054.94
2023-02-24T09:53:25.071Z,100063.03
2023-02-24T09:55:37.539Z,100068.44
2023-02-24T09:57:46.827Z,100051.81
2023-02-24T09:59:54.678Z,100048.44
2023-02-24T10:02:03.277Z,100043.44
2023-02-24T10:04:21.825Z,100023.72
2023-02-24T10:06:25.842Z,100029.31
2023-02-24T10:08:34.546Z,100028.88
2023-02-24T10:10:37.708Z,100022.34
2023-02-24T10:12:39.596Z,100018.81
2023-02-24T10:14:52.047Z,100016.13
2023-02-24T10:16:56.353Z,100004.53
2023-02-24T10:19:05.449Z,99997.84
2023-02-24T10:21:20.259Z,99989.75
2023-02-24T10:23:28.467Z,99997.38
2023-02-24T10:25:45.128Z,99987.44
2023-02-24T10:27:58.738Z,99979.94
2023-02-24T10:30:08.177Z,99967.50
2023-02-24T10:32:19.254Z,99972.88
2023-02-24T10:34:23.826Z,99971.38
2023-02-24T10:36:26.093Z,99952.91
2023-02-24T10:38:27.845Z,99954.59
2023-02-24T10:40:29.638Z,99945.59
2023-02-24T10:42:32.944Z,99938.53
2023-02-24T10:44:34.659Z,99944.47
2023-02-24T10:46:41.470Z,99936.59
2023-02-24T10:48:52.593Z,99928.53
2023-02-24T10:50:56.725Z,99922.47
2023-02-24T10:53:04.625Z,99925.53
2023-02-24T10:55:13.264Z,99922.84
2023-02-24T10:57:15.305Z,99920.00
2023-02-24T10:59:19.227Z,99917.31
2023-02-24T11:01:31.719Z,99918.69
2023-02-24T11:03:34.584Z,99907.09
2023-02-24T11:05:41.150Z,99898.19
2023-02-24T11:07:42.888Z,99897.53
2023-02-24T11:09:44.753Z,99897.72
2023-02-24T11:11:47.547Z,99893.56
2023-02-24T11:13:50.735Z,99883.16
2023-02-24T11:15:55.149Z,99870.34
2023-02-24T11:17:59.293Z,99864.50
2023-02-24T11:20:03.383Z,99870.91
2023-02-24T11:22:05.704Z,99868.66
2023-02-24T11:24:15.650Z,99858.09
2023-02-24T11:26:21.239Z,99840.84
2023-02-24T11:28:40.582Z,99854.56
2023-02-24T11:30:52.987Z,99847.34
2023-02-24T11:33:17.589Z,99841.13
2023-02-24T11:35:26.893Z,99839.91
2023-02-24T11:37:36.440Z,99830.81
2023-02-24T11:39:51.134Z,99837.66
2023-02-24T11:41:57.225Z,99828.56
2023-02-24T11:44:04.646Z,99825.03
2023-02-24T11:46:12.281Z,99816.78
2023-02-24T11:48:19.953Z,99803.13
2023-02-24T11:50:39.391Z,99810.19
2023-02-24T11:52:45.749Z,99808.50
2023-02-24T11:54:52.266Z,99804.81
2023-02-24T11:56:56.843Z,99801.28
2023-02-24T11:59:04.024Z,99787.81
2023-02-24T12:01:12.439Z,99786.59
2023-02-24T12:03:22.774Z,99783.91
2023-02-24T12:05:27.965Z,99786.59
2023-02-24T12:07:34.035Z,99780.19
2023-02-24T12:09:43.756Z,99773.13
2023-02-24T12:11:53.896Z,99771.47
2023-02-24T12:14:06.964Z,99776.47
2023-02-24T12:16:14.372Z,99766.72
2023-02-24T12:18:24.279Z,99759.50
2023-02-24T12:20:30.454Z,99757.81
2023-02-24T12:22:40.657Z,99752.25
2023-02-24T12:24:47.681Z,99755.56
2023-02-24T12:27:03.691Z,99752.53
2023-02-24T12:29:49.753Z,99744.91
2023-02-24T12:32:01.782Z,99743.22
2023-02-24T12:34:12.672Z,99734.75
2023-02-24T12:36:30.532Z,99734.75
2023-02-24T12:38:48.589Z,99732.72
2023-02-24T12:40:57.515Z,99721.72
2023-02-24T12:43:11.198Z,99724.63
2023-02-24T12:45:19.140Z,99718.03
2023-02-24T12:47:33.905Z,99711.63
2023-02-24T12:50:10.021Z,99705.63
2023-02-24T12:52:20.409Z,99699.22
2023-02-24T12:54:27.190Z,99694.28
2023-02-24T12:56:41.658Z,99696.78
2023-02-24T12:58:46.291Z,99690.00
2023-02-24T13:01:02.013Z,99692.28
2023-02-24T13:03:19.592Z,99683.81
2023-02-24T13:05:28.757Z,99679.03
2023-02-24T13:07:44.952Z,99679.69
2023-02-24T13:09:52.537Z,99674.94
2023-02-24T13:11:57.831Z,99664.81
2023-02-24T13:14:06.922Z,99672.69
2023-02-24T13:16:11.660Z,99663.56
2023-02-24T13:18:24.331Z,99663.41
2023-02-24T13:20:30.526Z,99658.84
2023-02-24T13:22:33.001Z,99647.00
2023-02-24T13:24:35.616Z,99658.44
2023-02-24T13:26:37.214Z,99642.91
2023-02-24T13:28:38.995Z,99640.84
2023-02-24T13:30:42.490Z,99638.78
2023-02-24T13:32:46.503Z,99641.28
2023-02-24T13:34:48.116Z,99635.91
2023-02-24T13:36:51.533Z,99624.72
2023-02-24T13:39:05.481Z,99627.84
2023-02-24T13:41:35.054Z,99624.13
2023-02-24T13:43:36.866Z,99622.06
2023-02-24T13:45:39.905Z,99617.50
2023-02-24T13:48:19.143Z,99617.75
2023-02-24T13:50:23.366Z,99599.69
2023-02-24T13:52:37.978Z,99596.81
2023-02-24T13:55:03.255Z,99595.38
2023-02-24T13:57:21.319Z,99588.97
2023-02-24T13:59:57.751Z,99599.13
2023-02-24T14:02:02.164Z,99599.13
2023-02-24T14:04:14.116Z,99593.72
2023-02-24T14:06:22.689Z,99589.81
2023-02-24T14:08:38.102Z,99583.59
2023-02-24T14:10:45.899Z,99588.97
2023-02-24T14:12:49.708Z,99582.94
2023-02-24T14:14:52.171Z,99584.41
2023-02-24T14:16:53.744Z,99589.59
2023-02-24T14:18:57.444Z,99586.06
2023-02-24T14:20:59.174Z,99581.31
2023-02-24T14:23:01.409Z,99576.75
2023-02-24T14:25:05.959Z,99571.97
2023-02-24T14:27:07.582Z,99575.50
2023-02-24T14:29:09.791Z,99564.72
2023-02-24T14:31:15.408Z,99572.81
2023-02-24T14:33:25.847Z,99572.41
2023-02-24T14:35:33.603Z,99575.31
2023-02-24T14:37:35.844Z,99572.41
2023-02-24T14:39:37.426Z,99567.84
2023-02-24T14:41:40.758Z,99562.47
2023-02-24T14:43:42.655Z,99560.41
2023-02-24T14:45:48.686Z,99555.03
2023-02-24T14:47:50.390Z,99535.94
2023-02-24T14:49:54.594Z,99539.25
2023-02-24T14:52:02.135Z,99537.41
2023-02-24T14:54:08.905Z,99545.09
2023-02-24T14:56:13.408Z,99538.63
2023-02-24T14:58:21.641Z,99536.56
2023-02-24T15:00:26.945Z,99522.88
2023-02-24T15:02:33.513Z,99520.59
2023-02-24T15:04:37.231Z,99520.41
2023-02-24T15:06:42.863Z,99525.38
2023-02-24T15:08:48.681Z,99515.66
2023-02-24T15:10:50.786Z,99518.13
2023-02-24T15:12:59.145Z,99516.06
2023-02-24T15:15:08.210Z,99510.03
2023-02-24T15:17:16.811Z,99509.63
2023-02-24T15:19:25.453Z,99501.53
2023-02-24T15:21:30.230Z,99495.09
2023-02-24T15:23:34.188Z,99506.91
2023-02-24T15:25:43.135Z,99497.81
2023-02-24T15:27:51.142Z,99480.59
2023-02-24T15:30:07.198Z,99476.84
2023-02-24T15:32:15.922Z,99479.94
2023-02-24T15:34:19.992Z,99478.94
2023-02-24T15:36:25.462Z,99475.19
2023-02-24T15:38:33.500Z,99469.81
2023-02-24T15:40:35.442Z,99474.38
2023-02-24T15:42:37.167Z,99470.22
2023-02-24T15:44:38.808Z,99468.13
2023-02-24T15:46:41.923Z,99463.78
2023-02-24T15:48:45.030Z,99454.84
2023-02-24T15:50:46.808Z,99444.06
2023-02-24T15:52:48.953Z,99445.94
2023-02-24T15:54:51.909Z,99446.75
2023-02-24T15:56:53.755Z,99441.16
2023-02-24T15:58:55.407Z,99436.19
2023-02-24T16:00:57.160Z,99436.78
2023-02-24T16:03:00.341Z,99434.31
2023-02-24T16:05:01.993Z,99422.69
2023-02-24T16:07:05.893Z,99432.66
2023-02-24T16:09:08.645Z,99426.22
2023-02-24T16:11:10.950Z,99428.09
2023-02-24T16:13:19.546Z,99434.31
2023-02-24T16:15:25.395Z,99419.16
2023-02-24T16:17:32.410Z,99420.44
2023-02-24T16:19:35.786Z,99416.06
2023-02-24T16:21:37.376Z,99419.38
2023-02-24T16:23:39.192Z,99417.72
2023-02-24T16:25:43.457Z,99416.06
2023-02-24T16:27:45.138Z,99409.00
2023-02-24T16:29:46.998Z,99408.16
2023-02-24T16:31:48.723Z,99403.00
2023-02-24T16:33:54.838Z,99403.59
2023-02-24T16:35:58.782Z,99404.44
2023-02-24T16:38:00.882Z,99398.44
2023-02-24T16:40:02.958Z,99400.91
2023-02-24T16:42:04.847Z,99403.84
2023-02-24T16:44:06.496Z,99392.22
2023-02-24T16:46:14.461Z,99391.38
2023-02-24T16:48:20.813Z,99395.09
2023-02-24T16:50:26.263Z,99392.41
2023-02-24T16:52:29.304Z,99396.97
2023-02-24T16:54:31.068Z,99386.59
2023-02-24T16:56:32.732Z,99392.81
2023-02-24T16:58:35.527Z,99384.94
2023-02-24T17:00:38.974Z,99393.66
2023-02-24T17:02:43.207Z,99390.13
2023-02-24T17:04:44.804Z,99389.53
2023-02-24T17:06:46.454Z,99393.84
2023-02-24T17:08:49.489Z,99388.69
2023-02-24T17:10:51.873Z,99386.19
2023-02-24T17:12:53.516Z,99386.19
2023-02-24T17:14:55.040Z,99391.38
2023-02-24T17:16:56.602Z,99386.00
2023-02-24T17:18:58.319Z,99381.63
2023-02-24T17:20:59.825Z,99382.47
2023-02-24T17:23:01.598Z,99371.03
2023-02-24T17:25:05.715Z,99367.31
2023-02-24T17:27:07.361Z,99378.09
2023-02-24T17:29:09.018Z,99371.25
2023-02-24T17:31:10.668Z,99370.25
2023-02-24T17:33:12.617Z,99365.88
2023-02-24T17:35:14.294Z,99358.63
2023-02-24T17:37:17.774Z,99357.78
2023-02-24T17:39:19.857Z,99360.47
2023-02-24T17:41:24.369Z,99358.81
2023-02-24T17:43:26.022Z,99362.53
2023-02-24T17:45:27.662Z,99367.09
2023-02-24T17:47:30.195Z,99358.22
2023-02-24T17:49:32.512Z,99366.28
2023-02-24T17:51:34.139Z,99358.59
2023-02-24T17:53:35.801Z,99354.69
2023-02-24T17:55:37.610Z,99362.75
2023-02-24T17:57:41.304Z,99356.72
2023-02-24T17:59:43.599Z,99353.44
2023-02-24T18:01:45.218Z,99352.41
2023-02-24T18:03:46.932Z,99358.00
2023-02-24T18:05:48.629Z,99348.03
2023-02-24T18:07:50.465Z,99344.50
2023-02-24T18:09:52.187Z,99340.16
2023-02-24T18:11:53.882Z,99333.72
2023-02-24T18:14:00.527Z,99342.84
2023-02-24T18:16:02.264Z,99338.28
2023-02-24T18:18:04.804Z,99335.59
2023-02-24T18:20:08.359Z,99332.28
2023-02-24T18:22:12.465Z,99335.59
2023-02-24T18:24:14.653Z,99329.16
2023-02-24T18:26:16.603Z,99317.56
2023-02-24T18:28:18.337Z,99313.19
2023-02-24T18:30:21.542Z,99312.16
2023-02-24T18:32:23.258Z,99313.19
2023-02-24T18:34:25.011Z,99305.94
2023-02-24T18:36:27.016Z,99297.84
2023-02-24T18:38:29.228Z,99298.69
2023-02-24T18:40:30.796Z,99299.50
2023-02-24T18:42:32.584Z,99299.50
2023-02-24T18:44:34.684Z,99298.50
2023-02-24T18:46:37.848Z,99286.88
2023-02-24T18:48:40.023Z,99294.72
2023-02-24T18:50:41.565Z,99288.72
2023-02-24T18:52:43.840Z,99285.81
2023-02-24T18:54:45.671Z,99281.06
2023-02-24T18:56:47.243Z,99295.56
2023-02-24T18:58:49.018Z,99281.06
2023-02-24T19:00:50.551Z,99282.72
2023-02-24T19:02:53.729Z,99277.31
2023-02-24T19:04:55.334Z,99267.56
2023-02-24T19:06:56.861Z,99274.63
2023-02-24T19:09:00.532Z,99271.72
2023-02-24T19:11:08.098Z,99270.03
2023-02-24T19:13:10.299Z,99271.72
2023-02-24T19:15:11.906Z,99263.84
2023-02-24T19:17:13.427Z,99265.47
2023-02-24T19:19:17.362Z,99265.47
2023-02-24T19:21:19.543Z,99253.88
2023-02-24T19:23:21.195Z,99254.94
2023-02-24T19:25:22.728Z,99255.75
2023-02-24T19:27:24.373Z,99248.47
2023-02-24T19:29:27.945Z,99256.56
2023-02-24T19:31:32.446Z,99242.28
2023-02-24T19:33:34.143Z,99250.38
2023-02-24T19:35:39.939Z,99252.22
2023-02-24T19:37:41.586Z,99244.75
2023-02-24T19:39:43.295Z,99252.00
2023-02-24T19:41:46.249Z,99256.56
2023-02-24T19:43:48.673Z,99249.31
2023-02-24T19:45:50.345Z,99246.59
2023-02-24T19:47:52.259Z,99242.06
2023-02-24T19:49:54.046Z,99240.38
2023-02-24T19:51:57.500Z,99244.75
2023-02-24T19:54:00.787Z,99238.53
2023-02-24T19:56:02.459Z,99252.84
2023-02-24T19:58:04.224Z,99252.63
2023-02-24T20:00:07.635Z,99253.47
2023-02-24T20:02:09.960Z,99248.28
2023-02-24T20:04:11.566Z,99249.94
2023-02-24T20:06:17.432Z,99249.94
2023-02-24T20:08:20.418Z,99245.59
2023-02-24T20:10:22.242Z,99254.31
2023-02-24T20:12:24.064Z,99258.03
2023-02-24T20:14:28.326Z,99251.81
2023-02-24T20:16:31.191Z,99246.59
2023-02-24T20:18:33.023Z,99244.75
2023-02-24T20:20:36.166Z,99252.00
2023-02-24T20:22:37.773Z,99250.38
2023-02-24T20:24:40.771Z,99248.69
2023-02-24T20:26:44.717Z,99251.59
2023-02-24T20:28:47.363Z,99252.44
2023-02-24T20:30:50.519Z,99255.34
2023-02-24T20:32:52.439Z,99260.75
2023-02-24T20:34:54.046Z,99261.78
2023-02-24T20:36:55.746Z,99258.66
2023-02-24T20:38:58.853Z,99259.50
2023-02-24T20:41:01.981Z,99263.03
2023-02-24T20:43:04.837Z,99257.00
2023-02-24T20:45:08.155Z,99259.09
2023-02-24T20:47:09.851Z,99268.81
2023-02-24T20:49:13.443Z,99262.00
2023-02-24T20:51:15.509Z,99263.00
2023-02-24T20:53:17.548Z,99261.38
2023-02-24T20:55:19.829Z,99257.03
2023-02-24T20:57:22.761Z,99260.75
2023-02-24T20:59:24.365Z,99260.13
2023-02-24T21:01:26.231Z,99260.13
2023-02-24T21:03:27.851Z,99250.59
2023-02-24T21:05:29.720Z,99253.09
2023-02-24T21:07:31.295Z,99251.66
2023-02-24T21:09:33.027Z,99252.44
2023-02-24T21:11:34.895Z,99251.00
2023-02-24T21:13:39.628Z,99247.47
2023-02-24T21:15:49.484Z,99245.84
2023-02-24T21:17:51.117Z,99247.06
2023-02-24T21:19:52.906Z,99246.47
2023-02-24T21:21:54.633Z,99250.19
2023-02-24T21:23:56.246Z,99242.31
2023-02-24T21:25:57.853Z,99251.44
2023-02-24T21:27:59.374Z,99256.41
2023-02-24T21:30:02.813Z,99260.16
2023-02-24T21:32:04.446Z,99253.09
2023-02-24T21:34:06.161Z,99247.94
2023-02-24T21:36:10.849Z,99246.47
2023-02-24T21:38:12.518Z,99248.53
2023-02-24T21:40:14.582Z,99242.50
2023-02-24T21:42:16.167Z,99245.22
2023-02-24T21:44:17.718Z,99245.63
2023-02-24T21:46:21.048Z,99246.69
2023-02-24T21:48:23.189Z,99249.56
2023-02-24T21:50:25.045Z,99237.97
2023-02-24T21:52:26.675Z,99234.66
2023-02-24T21:54:28.418Z,99234.66
2023-02-24T21:56:30.416Z,99235.88
2023-02-24T21:58:32.666Z,99241.28
2023-02-24T22:00:34.324Z,99238.59
2023-02-24T22:02:37.604Z,99243.13
2023-02-24T22:04:39.728Z,99235.06
2023-02-24T22:06:42.210Z,99231.75
2023-02-24T22:08:44.006Z,99234.44
2023-02-24T22:10:45.809Z,99228.44
2023-02-24T22:12:48.843Z,99234.66
2023-02-24T22:14:50.634Z,99220.38
2023-02-24T22:16:52.176Z,99228.66
2023-02-24T22:18:55.577Z,99224.28
2023-02-24T22:20:57.098Z,99226.16
2023-02-24T22:22:58.967Z,99217.47
2023-02-24T22:25:00.792Z,99226.78
2023-02-24T22:27:02.425Z,99224.91
2023-02-24T22:29:06.202Z,99226.16
2023-02-24T22:31:09.775Z,99219.94
2023-02-24T22:33:11.678Z,99230.72
2023-02-24T22:35:14.636Z,99229.88
2023-02-24T22:37:16.710Z,99223.69
2023-02-24T22:39:18.281Z,99227.59
2023-02-24T22:41:21.669Z,99223.28
2023-02-24T22:43:23.272Z,99224.28
2023-02-24T22:45:25.149Z,99228.00
2023-02-24T22:47:26.780Z,99224.72
2023-02-24T22:49:28.781Z,99221.19
2023-02-24T22:51:32.168Z,99218.91
2023-02-24T22:53:38.952Z,99229.47
2023-02-24T22:55:45.774Z,99227.00
2023-02-24T22:57:47.374Z,99227.19
2023-02-24T22:59:48.949Z,99231.72
2023-02-24T23:01:50.455Z,99228.44
2023-02-24T23:03:52.581Z,99231.31
2023-02-24T23:05:55.157Z,99234.19
2023-02-24T23:07:58.173Z,99238.56
2023-02-24T23:09:59.822Z,99229.88
2023-02-24T23:12:01.442Z,99230.91
2023-02-24T23:14:05.656Z,99236.28
2023-02-24T23:16:09.812Z,99230.28
2023-02-24T23:18:11.719Z,99232.16
2023-02-24T23:20:13.475Z,99224.50
2023-02-24T23:22:15.044Z,99229.88
2023-02-24T23:24:20.015Z,99227.97
2023-02-24T23:26:22.015Z,99236.28
2023-02-24T23:28:25.016Z,99232.94
2023-02-24T23:30:26.646Z,99232.34
2023-02-24T23:32:28.397Z,99237.91
2023-02-24T23:34:30.150Z,99237.31
2023-02-24T23:36:31.805Z,99244.34
2023-02-24T23:38:33.716Z,99241.84
2023-02-24T23:40:49.545Z,99243.09
2023-02-24T23:42:52.529Z,99238.53
2023-02-24T23:44:54.110Z,99245.13
2023-02-24T23:46:55.833Z,99248.66
2023-02-24T23:48:57.718Z,99238.31
2023-02-24T23:51:02.834Z,99241.63
2023-02-24T23:53:06.069Z,99245.56
2023-02-24T23:55:08.601Z,99239.34
2023-02-24T23:57:11.511Z,99242.03
2023-02-24T23:59:13.531Z,99244.72
